Time;durP1;ratioP1;P1;durP2;ratioP2;P2;SDS_P1;SDS_P2;PMS_P1;PMS_P2;Temp;Humidity;BMP_temperature;BMP_pressure;BME280_temperature;BME280_humidity;BME280_pressure;Samples;Min_cycle;Max_cycle;Signal;HPM_P1;HPM_P2
2022/04/04 00:01:58;;;;;;;14.50;2.33;;;;;;;;;;5061862;28;20083;-65
2022/04/04 00:04:25;;;;;;;13.82;2.55;;;;;;;;;;5059117;28;21694;-65
2022/04/04 00:06:51;;;;;;;11.63;1.80;;;;;;;;;;5056241;28;20135;-66
2022/04/04 00:09:17;;;;;;;10.90;1.98;;;;;;;;;;5058569;28;20052;-66
2022/04/04 00:11:44;;;;;;;6.35;1.80;;;;;;;;;;5058606;28;20152;-67
2022/04/04 00:14:10;;;;;;;12.55;1.70;;;;;;;;;;5058038;28;20048;-68
2022/04/04 00:16:37;;;;;;;9.75;1.38;;;;;;;;;;5056474;28;20080;-69
2022/04/04 00:19:05;;;;;;;9.77;1.70;;;;;;;;;;5057776;28;20056;-68
2022/04/04 00:21:32;;;;;;;10.30;1.48;;;;;;;;;;5060349;28;20151;-68
2022/04/04 00:24:05;;;;;;;9.88;1.80;;;;;;;;;;5062280;28;20131;-67
2022/04/04 00:26:32;;;;;;;12.55;2.20;;;;;;;;;;5061814;28;20041;-66
2022/04/04 00:28:58;;;;;;;10.45;2.25;;;;;;;;;;5055453;28;20076;-67
2022/04/04 00:31:25;;;;;;;9.80;1.85;;;;;;;;;;5056512;28;20139;-67
2022/04/04 00:33:51;;;;;;;7.32;1.90;;;;;;;;;;5058233;28;20049;-67
2022/04/04 00:36:18;;;;;;;9.23;2.00;;;;;;;;;;5057687;28;20143;-67
2022/04/04 00:38:44;;;;;;;13.35;1.67;;;;;;;;;;5055961;28;20052;-68
2022/04/04 00:41:13;;;;;;;8.80;1.70;;;;;;;;;;5058701;28;20083;-68
2022/04/04 00:43:40;;;;;;;14.95;1.65;;;;;;;;;;5057509;28;20048;-68
2022/04/04 00:46:10;;;;;;;13.57;2.65;;;;;;;;;;5056052;28;20131;-69
2022/04/04 00:48:37;;;;;;;12.60;2.20;;;;;;;;;;5045950;28;20045;-68
2022/04/04 00:51:03;;;;;;;10.90;2.00;;;;;;;;;;5059578;28;20052;-68
2022/04/04 00:53:31;;;;;;;17.85;2.67;;;;;;;;;;5058418;28;20076;-68
2022/04/04 00:55:58;;;;;;;13.38;2.10;;;;;;;;;;5058995;28;20045;-68
2022/04/04 00:58:25;;;;;;;10.38;2.20;;;;;;;;;;5044637;28;20088;-68
2022/04/04 01:00:53;;;;;;;10.07;1.75;;;;;;;;;;5057088;28;20080;-67
2022/04/04 01:03:19;;;;;;;7.80;2.17;;;;;;;;;;5056765;28;20438;-67
2022/04/04 01:05:47;;;;;;;13.30;2.05;;;;;;;;;;5058638;28;20094;-67
2022/04/04 01:08:15;;;;;;;10.15;2.05;;;;;;;;;;5060930;28;20091;-67
2022/04/04 01:10:42;;;;;;;16.15;2.35;;;;;;;;;;5056888;28;20147;-67
2022/04/04 01:13:12;;;;;;;16.55;2.55;;;;;;;;;;5057482;28;20147;-67
2022/04/04 01:15:38;;;;;;;12.45;2.08;;;;;;;;;;5057322;28;20054;-67
2022/04/04 01:18:06;;;;;;;17.38;2.58;;;;;;;;;;5057562;28;20080;-67
2022/04/04 01:20:32;;;;;;;;;;;;;;;;;;5058493;28;20082;-67
2022/04/04 01:22:59;;;;;;;12.82;2.33;;;;;;;;;;5055582;28;20030;-67
2022/04/04 01:25:27;;;;;;;9.85;2.25;;;;;;;;;;5059352;28;20131;-67
2022/04/04 01:27:54;;;;;;;;;;;;;;;;;;5057752;28;20136;-68
2022/04/04 01:30:23;;;;;;;8.85;2.10;;;;;;;;;;5056239;28;20808;-68
2022/04/04 01:32:50;;;;;;;14.10;2.30;;;;;;;;;;5055093;28;20052;-68
2022/04/04 01:35:17;;;;;;;14.98;2.40;;;;;;;;;;5056140;28;20045;-67
2022/04/04 01:37:45;;;;;;;9.80;1.70;;;;;;;;;;5056950;28;20463;-67
2022/04/04 01:40:11;;;;;;;15.10;2.50;;;;;;;;;;5056705;28;20147;-68
2022/04/04 01:42:38;;;;;;;10.02;1.90;;;;;;;;;;5061066;28;20418;-67
2022/04/04 01:45:09;;;;;;;15.95;2.17;;;;;;;;;;5065001;28;20155;-68
2022/04/04 01:47:36;;;;;;;15.45;2.40;;;;;;;;;;5048099;28;20620;-68
2022/04/04 01:50:03;;;;;;;14.33;2.47;;;;;;;;;;5051048;28;20131;-67
2022/04/04 01:52:30;;;;;;;12.48;2.28;;;;;;;;;;5049365;28;20107;-67
2022/04/04 01:54:56;;;;;;;14.85;2.13;;;;;;;;;;5048794;28;20084;-68
2022/04/04 01:57:23;;;;;;;7.00;1.35;;;;;;;;;;5049221;28;20459;-67
2022/04/04 01:59:50;;;;;;;14.25;2.58;;;;;;;;;;5048296;28;20512;-67
2022/04/04 02:02:16;;;;;;;14.25;1.75;;;;;;;;;;5048594;28;20132;-67
2022/04/04 02:04:43;;;;;;;11.85;2.28;;;;;;;;;;5050078;28;20063;-67
2022/04/04 02:07:16;;;;;;;7.93;1.83;;;;;;;;;;5048996;28;20132;-67
2022/04/04 02:09:43;;;;;;;9.63;2.10;;;;;;;;;;5047987;28;20859;-67
2022/04/04 02:12:11;;;;;;;13.38;1.95;;;;;;;;;;5050241;28;20124;-67
2022/04/04 02:14:38;;;;;;;15.75;2.88;;;;;;;;;;5049856;28;20088;-67
2022/04/04 02:17:05;;;;;;;8.40;1.67;;;;;;;;;;5049503;28;20127;-68
2022/04/04 02:19:32;;;;;;;14.38;2.03;;;;;;;;;;5048233;28;20127;-68
2022/04/04 02:21:59;;;;;;;9.32;1.70;;;;;;;;;;5049759;28;20139;-68
2022/04/04 02:24:25;;;;;;;15.50;1.83;;;;;;;;;;5049425;28;20084;-68
2022/04/04 02:26:52;;;;;;;13.20;2.20;;;;;;;;;;5051572;28;20060;-67
2022/04/04 02:29:25;;;;;;;14.10;2.15;;;;;;;;;;5047389;28;20135;-67
2022/04/04 02:31:52;;;;;;;11.80;1.88;;;;;;;;;;5048336;28;20095;-67
2022/04/04 02:34:18;;;;;;;12.73;1.88;;;;;;;;;;5048845;28;20132;-67
2022/04/04 02:36:45;;;;;;;10.13;2.05;;;;;;;;;;5048665;28;20584;-68
2022/04/04 02:39:11;;;;;;;12.07;1.67;;;;;;;;;;5046585;28;20099;-67
2022/04/04 02:41:37;;;;;;;15.10;2.92;;;;;;;;;;5037116;28;20051;-67
2022/04/04 02:44:04;;;;;;;12.18;2.72;;;;;;;;;;5037087;28;20416;-67
2022/04/04 02:46:31;;;;;;;7.57;1.48;;;;;;;;;;5036017;28;20151;-67
2022/04/04 02:48:58;;;;;;;12.73;2.00;;;;;;;;;;5037479;28;20049;-67
2022/04/04 02:51:24;;;;;;;7.00;2.10;;;;;;;;;;5037273;28;20127;-68
2022/04/04 02:53:51;;;;;;;15.32;2.30;;;;;;;;;;5036863;28;20522;-68
2022/04/04 02:56:29;;;;;;;12.80;2.13;;;;;;;;;;5038973;28;20131;-67
2022/04/04 02:59:02;;;;;;;10.02;2.15;;;;;;;;;;5037772;28;20132;-67
2022/04/04 03:01:29;;;;;;;12.50;2.20;;;;;;;;;;5036476;28;20049;-68
2022/04/04 03:03:56;;;;;;;10.07;2.20;;;;;;;;;;5037356;28;20056;-67
2022/04/04 03:06:23;;;;;;;10.87;1.77;;;;;;;;;;5037264;28;20049;-68
2022/04/04 03:08:50;;;;;;;8.68;1.80;;;;;;;;;;5037506;28;20658;-67
2022/04/04 03:11:16;;;;;;;16.98;2.40;;;;;;;;;;5035853;28;20053;-68
2022/04/04 03:13:46;;;;;;;6.40;1.23;;;;;;;;;;5035213;28;20053;-67
2022/04/04 03:16:12;;;;;;;14.65;2.20;;;;;;;;;;5036509;28;20461;-67
2022/04/04 03:18:39;;;;;;;7.87;1.67;;;;;;;;;;5039053;28;20136;-67
2022/04/04 03:21:06;;;;;;;8.32;1.55;;;;;;;;;;5039352;28;20097;-67
2022/04/04 03:23:33;;;;;;;11.00;2.17;;;;;;;;;;5036312;28;20132;-68
2022/04/04 03:26:00;;;;;;;6.82;1.58;;;;;;;;;;5039751;28;20168;-68
2022/04/04 03:28:27;;;;;;;8.57;1.92;;;;;;;;;;5039002;28;20091;-68
2022/04/04 03:30:53;;;;;;;12.20;2.17;;;;;;;;;;5038942;28;20099;-68
2022/04/04 03:33:21;;;;;;;8.43;1.50;;;;;;;;;;5039158;28;20156;-68
2022/04/04 03:35:49;;;;;;;3.75;1.60;;;;;;;;;;5036686;28;20055;-67
2022/04/04 03:38:15;;;;;;;11.07;1.60;;;;;;;;;;5037494;28;20486;-68
2022/04/04 03:40:42;;;;;;;3.50;1.30;;;;;;;;;;5036319;28;20132;-67
2022/04/04 03:43:15;;;;;;;9.98;2.00;;;;;;;;;;5038621;28;20099;-68
2022/04/04 03:45:43;;;;;;;6.93;1.60;;;;;;;;;;5041807;28;20091;-67
2022/04/04 03:48:10;;;;;;;4.53;1.33;;;;;;;;;;5039784;28;20053;-67
2022/04/04 03:50:36;;;;;;;11.32;2.55;;;;;;;;;;5038967;28;20125;-67
2022/04/04 03:53:03;;;;;;;5.10;1.50;;;;;;;;;;5042192;28;20528;-67
2022/04/04 03:55:31;;;;;;;3.38;1.52;;;;;;;;;;5035056;28;20095;-67
2022/04/04 03:57:58;;;;;;;8.55;1.20;;;;;;;;;;5036974;28;20105;-67
2022/04/04 04:00:24;;;;;;;2.78;1.13;;;;;;;;;;5036858;28;20088;-67
2022/04/04 04:02:55;;;;;;;5.05;0.93;;;;;;;;;;5036881;28;20128;-67
2022/04/04 04:05:21;;;;;;;3.63;0.95;;;;;;;;;;5040176;28;20072;-67
2022/04/04 04:07:48;;;;;;;2.90;0.77;;;;;;;;;;5037431;28;20495;-67
2022/04/04 04:10:14;;;;;;;8.18;1.30;;;;;;;;;;5038750;28;20076;-68
2022/04/04 04:12:42;;;;;;;4.60;1.10;;;;;;;;;;5031612;28;20120;-67
2022/04/04 04:15:09;;;;;;;2.80;1.48;;;;;;;;;;5034885;28;20137;-67
2022/04/04 04:17:39;;;;;;;4.10;1.15;;;;;;;;;;5039261;28;20132;-68
2022/04/04 04:20:23;;;;;;;11.10;1.95;;;;;;;;;;5039790;28;20128;-68
2022/04/04 04:22:57;;;;;;;2.72;1.02;;;;;;;;;;5036653;28;20132;-68
2022/04/04 04:25:24;;;;;;;;;;;;;;;;;;5039333;28;20083;-67
2022/04/04 04:27:51;;;;;;;6.68;1.30;;;;;;;;;;5037536;28;19979;-68
2022/04/04 04:30:17;;;;;;;4.78;1.08;;;;;;;;;;5043468;28;20155;-68
2022/04/04 04:32:45;;;;;;;7.87;1.40;;;;;;;;;;5036934;28;20140;-68
2022/04/04 04:35:11;;;;;;;2.47;0.90;;;;;;;;;;5041759;28;20076;-68
2022/04/04 04:37:39;;;;;;;5.80;1.25;;;;;;;;;;5044084;28;20661;-67
2022/04/04 04:40:06;;;;;;;6.22;1.25;;;;;;;;;;5045398;28;20737;-68
2022/04/04 04:42:33;;;;;;;3.08;1.00;;;;;;;;;;5043502;28;20049;-68
2022/04/04 04:45:04;;;;;;;6.10;1.42;;;;;;;;;;5043430;28;20132;-68
2022/04/04 04:47:32;;;;;;;1.95;0.98;;;;;;;;;;5059422;28;20495;-68
2022/04/04 04:49:59;;;;;;;3.80;1.10;;;;;;;;;;5063294;28;20098;-68
2022/04/04 04:52:26;;;;;;;3.97;1.10;;;;;;;;;;5061800;28;20087;-68
2022/04/04 04:54:53;;;;;;;6.78;1.30;;;;;;;;;;5060700;28;20508;-68
2022/04/04 04:57:20;;;;;;;4.53;1.10;;;;;;;;;;5061618;28;20092;-69
2022/04/04 04:59:47;;;;;;;2.28;1.00;;;;;;;;;;5056886;28;20080;-68
2022/04/04 05:02:14;;;;;;;4.97;1.35;;;;;;;;;;5061310;28;20087;-68
2022/04/04 05:04:41;;;;;;;4.50;1.20;;;;;;;;;;5063771;28;20584;-68
2022/04/04 05:07:08;;;;;;;7.97;1.60;;;;;;;;;;5066581;28;20816;-68
2022/04/04 05:09:36;;;;;;;1.15;0.95;;;;;;;;;;5064589;28;20083;-68
2022/04/04 05:12:09;;;;;;;4.80;1.48;;;;;;;;;;5058175;28;20092;-68
2022/04/04 05:14:36;;;;;;;5.43;1.50;;;;;;;;;;5056311;28;20561;-68
2022/04/04 05:17:04;;;;;;;7.00;1.30;;;;;;;;;;5062738;28;20390;-68
2022/04/04 05:19:31;;;;;;;2.72;1.25;;;;;;;;;;5062051;28;20088;-68
2022/04/04 05:21:57;;;;;;;4.47;1.23;;;;;;;;;;5060121;28;20144;-68
2022/04/04 05:24:24;;;;;;;2.58;1.15;;;;;;;;;;5059224;28;20131;-68
2022/04/04 05:26:51;;;;;;;;;;;;;;;;;;5056390;28;20049;-68
2022/04/04 05:29:18;;;;;;;3.65;1.30;;;;;;;;;;5059835;28;20043;-68
2022/04/04 05:31:47;;;;;;;2.22;1.20;;;;;;;;;;5060763;28;20540;-68
2022/04/04 05:34:14;;;;;;;1.25;0.73;;;;;;;;;;5057019;28;20052;-68
2022/04/04 05:36:40;;;;;;;1.77;0.93;;;;;;;;;;5056976;28;20470;-68
2022/04/04 05:39:07;;;;;;;4.20;1.30;;;;;;;;;;5061066;28;20080;-68
2022/04/04 05:41:40;;;;;;;5.57;1.70;;;;;;;;;;5064110;28;20088;-68
2022/04/04 05:44:07;;;;;;;7.15;1.83;;;;;;;;;;5060066;28;20136;-68
2022/04/04 05:46:33;;;;;;;1.58;1.02;;;;;;;;;;5053822;28;20493;-68
2022/04/04 05:49:01;;;;;;;2.95;1.20;;;;;;;;;;5039466;28;20080;-68
2022/04/04 05:51:28;;;;;;;3.13;1.23;;;;;;;;;;5039565;28;20612;-68
2022/04/04 05:54:09;;;;;;;2.47;1.55;;;;;;;;;;5036168;28;20051;-68
2022/04/04 05:56:44;;;;;;;3.22;1.30;;;;;;;;;;5041773;28;20132;-68
2022/04/04 05:59:14;;;;;;;3.45;1.35;;;;;;;;;;5041180;28;20589;-68
2022/04/04 06:01:40;;;;;;;1.88;1.13;;;;;;;;;;5039875;28;20107;-68
2022/04/04 06:04:09;;;;;;;3.08;1.50;;;;;;;;;;5035724;28;20053;-68
2022/04/04 06:06:36;;;;;;;3.80;1.55;;;;;;;;;;5039634;28;20051;-68
2022/04/04 06:09:02;;;;;;;3.50;1.67;;;;;;;;;;5039755;28;20136;-68
2022/04/04 06:11:29;;;;;;;5.55;2.30;;;;;;;;;;5041213;28;20049;-68
2022/04/04 06:13:56;;;;;;;2.35;1.50;;;;;;;;;;5040724;28;20136;-68
2022/04/04 06:16:25;;;;;;;2.60;1.73;;;;;;;;;;5043849;28;20045;-68
2022/04/04 06:18:59;;;;;;;2.97;1.80;;;;;;;;;;5039783;28;20060;-68
2022/04/04 06:21:26;;;;;;;2.78;1.55;;;;;;;;;;5038449;28;20071;-68
2022/04/04 06:23:52;;;;;;;3.35;1.55;;;;;;;;;;5042418;28;20145;-68
2022/04/04 06:26:22;;;;;;;3.25;1.63;;;;;;;;;;5040836;28;20080;-68
2022/04/04 06:28:48;;;;;;;3.60;1.88;;;;;;;;;;5034918;28;20509;-68
2022/04/04 06:31:15;;;;;;;4.70;1.58;;;;;;;;;;5039016;28;20092;-68
2022/04/04 06:33:48;;;;;;;2.28;1.40;;;;;;;;;;5038681;28;20045;-68
2022/04/04 06:36:15;;;;;;;4.60;1.93;;;;;;;;;;5038616;28;20091;-68
2022/04/04 06:38:41;;;;;;;3.75;1.77;;;;;;;;;;5039148;28;20132;-68
2022/04/04 06:41:14;;;;;;;2.08;1.42;;;;;;;;;;5038006;28;20133;-68
2022/04/04 06:43:41;;;;;;;1.77;1.30;;;;;;;;;;5037847;28;20088;-68
2022/04/04 06:46:08;;;;;;;5.38;1.80;;;;;;;;;;5044204;27;20149;-68
2022/04/04 06:48:35;;;;;;;6.30;1.88;;;;;;;;;;5035768;28;20124;-68
2022/04/04 06:51:02;;;;;;;4.57;1.90;;;;;;;;;;5042076;28;20081;-68
2022/04/04 06:53:28;;;;;;;5.25;1.70;;;;;;;;;;5039816;28;20037;-68
2022/04/04 06:55:56;;;;;;;3.08;1.60;;;;;;;;;;5038237;28;20165;-67
2022/04/04 06:58:24;;;;;;;1.87;1.60;;;;;;;;;;5035380;28;20077;-68
2022/04/04 07:00:51;;;;;;;4.00;1.65;;;;;;;;;;5041967;28;20323;-68
2022/04/04 07:03:17;;;;;;;3.50;1.60;;;;;;;;;;5034746;28;20080;-68
2022/04/04 07:05:44;;;;;;;3.85;1.52;;;;;;;;;;5037423;28;20424;-67
2022/04/04 07:08:11;;;;;;;2.70;1.63;;;;;;;;;;5036230;28;20103;-67
2022/04/04 07:10:37;;;;;;;5.95;1.77;;;;;;;;;;5038660;28;20128;-68
2022/04/04 07:13:05;;;;;;;2.83;1.43;;;;;;;;;;5039347;28;20087;-67
2022/04/04 07:15:32;;;;;;;2.33;1.63;;;;;;;;;;5035810;28;20324;-67
2022/04/04 07:17:58;;;;;;;5.68;1.70;;;;;;;;;;5037856;28;20842;-68
2022/04/04 07:20:25;;;;;;;7.15;2.00;;;;;;;;;;5038863;28;20076;-67
2022/04/04 07:22:58;;;;;;;8.05;2.92;;;;;;;;;;5039982;28;20056;-68
2022/04/04 07:25:25;;;;;;;2.17;1.75;;;;;;;;;;5036304;28;20142;-68
2022/04/04 07:27:51;;;;;;;5.55;2.15;;;;;;;;;;5038465;28;20140;-68
2022/04/04 07:30:24;;;;;;;3.20;1.85;;;;;;;;;;5037324;28;20052;-68
2022/04/04 07:32:51;;;;;;;3.78;1.90;;;;;;;;;;5037890;28;20049;-67
2022/04/04 07:35:19;;;;;;;4.10;1.45;;;;;;;;;;5038986;28;20052;-67
2022/04/04 07:37:48;;;;;;;2.95;1.73;;;;;;;;;;5038346;28;20044;-70
2022/04/04 07:40:16;;;;;;;5.22;1.67;;;;;;;;;;5037810;28;20084;-68
2022/04/04 07:42:43;;;;;;;8.75;5.40;;;;;;;;;;5040434;28;20077;-68
2022/04/04 07:45:17;;;;;;;4.28;1.75;;;;;;;;;;5041426;28;20100;-67
2022/04/04 07:47:44;;;;;;;3.50;1.90;;;;;;;;;;5035947;28;20136;-67
2022/04/04 07:50:13;;;;;;;3.30;1.40;;;;;;;;;;5042343;28;20868;-67
2022/04/04 07:52:40;;;;;;;3.13;1.20;;;;;;;;;;5040119;28;20046;-67
2022/04/04 07:55:07;;;;;;;3.00;1.40;;;;;;;;;;5034513;28;20082;-68
2022/04/04 07:57:37;;;;;;;1.83;1.35;;;;;;;;;;5040959;28;20655;-68
2022/04/04 08:00:04;;;;;;;3.83;1.58;;;;;;;;;;5039837;28;20091;-67
2022/04/04 08:02:30;;;;;;;4.50;1.10;;;;;;;;;;5038701;28;20081;-67
2022/04/04 08:04:59;;;;;;;1.38;1.05;;;;;;;;;;5038683;28;20511;-68
2022/04/04 08:07:25;;;;;;;2.95;1.27;;;;;;;;;;5040804;28;20596;-67
2022/04/04 08:09:52;;;;;;;4.28;1.52;;;;;;;;;;5042936;28;20160;-67
2022/04/04 08:12:26;;;;;;;1.73;1.20;;;;;;;;;;5040884;28;20045;-68
2022/04/04 08:14:52;;;;;;;1.67;1.17;;;;;;;;;;5041372;28;20132;-67
2022/04/04 08:17:19;;;;;;;3.08;1.02;;;;;;;;;;5045758;28;20502;-67
2022/04/04 08:19:48;;;;;;;2.33;1.08;;;;;;;;;;5039781;28;20462;-67
2022/04/04 08:22:18;;;;;;;2.92;1.33;;;;;;;;;;5042478;28;20081;-67
2022/04/04 08:24:45;;;;;;;2.15;1.20;;;;;;;;;;5042208;28;20483;-67
2022/04/04 08:27:11;;;;;;;5.07;1.30;;;;;;;;;;5042257;28;20475;-67
2022/04/04 08:29:38;;;;;;;4.75;1.60;;;;;;;;;;5040907;28;20480;-68
2022/04/04 08:32:05;;;;;;;2.15;0.95;;;;;;;;;;5040656;28;20148;-68
2022/04/04 08:34:38;;;;;;;2.65;1.27;;;;;;;;;;5043542;28;20056;-67
2022/04/04 08:37:05;;;;;;;1.10;1.00;;;;;;;;;;5043139;28;20077;-67
2022/04/04 08:39:31;;;;;;;1.38;0.77;;;;;;;;;;5043750;28;20140;-67
2022/04/04 08:41:59;;;;;;;;;;;;;;;;;;5038611;28;20124;-67
2022/04/04 08:44:26;;;;;;;1.63;0.95;;;;;;;;;;5043047;28;19978;-68
2022/04/04 08:46:53;;;;;;;1.83;0.77;;;;;;;;;;5041385;28;20095;-67
2022/04/04 08:49:20;;;;;;;1.95;0.88;;;;;;;;;;5041280;28;20124;-68
2022/04/04 08:51:49;;;;;;;1.35;0.82;;;;;;;;;;5042845;28;20528;-68
2022/04/04 08:54:16;;;;;;;1.58;0.70;;;;;;;;;;5040397;28;20140;-68
2022/04/04 08:56:42;;;;;;;1.85;0.95;;;;;;;;;;5042327;28;20111;-67
2022/04/04 08:59:09;;;;;;;2.63;1.10;;;;;;;;;;5041149;28;20512;-67
2022/04/04 09:01:42;;;;;;;1.92;0.80;;;;;;;;;;5042222;28;20124;-67
2022/04/04 09:04:09;;;;;;;1.48;0.73;;;;;;;;;;5040567;28;20060;-67
2022/04/04 09:06:52;;;;;;;0.70;0.70;;;;;;;;;;5039424;28;20141;-67
2022/04/04 09:09:19;;;;;;;0.65;0.60;;;;;;;;;;5039021;28;20045;-67
2022/04/04 09:11:53;;;;;;;0.55;0.47;;;;;;;;;;5040878;28;20085;-68
2022/04/04 09:14:24;;;;;;;0.65;0.65;;;;;;;;;;5038121;28;20132;-67
2022/04/04 09:16:54;;;;;;;1.85;0.65;;;;;;;;;;5038663;28;20106;-68
2022/04/04 09:19:30;;;;;;;1.17;0.80;;;;;;;;;;5042347;28;20091;-67
2022/04/04 09:22:02;;;;;;;0.63;0.60;;;;;;;;;;5042627;28;20057;-67
2022/04/04 09:24:44;;;;;;;1.20;0.50;;;;;;;;;;5040836;28;20409;-67
2022/04/04 09:27:16;;;;;;;0.90;0.50;;;;;;;;;;5037498;28;20181;-67
2022/04/04 09:29:51;;;;;;;0.80;0.55;;;;;;;;;;5039865;28;20120;-67
2022/04/04 09:32:18;;;;;;;0.75;0.60;;;;;;;;;;5038748;28;20132;-68
2022/04/04 09:34:50;;;;;;;0.55;0.50;;;;;;;;;;5040610;28;20077;-67
2022/04/04 09:37:16;;;;;;;0.50;0.50;;;;;;;;;;5039812;28;20144;-67
2022/04/04 09:39:43;;;;;;;0.50;0.50;;;;;;;;;;5041906;28;20123;-67
2022/04/04 09:42:32;;;;;;;0.70;0.65;;;;;;;;;;5041561;28;20055;-67
2022/04/04 09:44:59;;;;;;;0.40;0.40;;;;;;;;;;5036079;28;20088;-67
2022/04/04 09:47:45;;;;;;;0.50;0.50;;;;;;;;;;5050666;28;20057;-67
2022/04/04 09:50:31;;;;;;;0.40;0.40;;;;;;;;;;5060139;28;20059;-67
2022/04/04 09:52:59;;;;;;;0.63;0.50;;;;;;;;;;5055994;28;20052;-67
2022/04/04 09:55:25;;;;;;;;;;;;;;;;;;5058596;28;20051;-67
2022/04/04 09:57:52;;;;;;;0.47;0.40;;;;;;;;;;5060602;28;19976;-67
2022/04/04 10:00:19;;;;;;;0.50;0.50;;;;;;;;;;5058875;28;20135;-67
2022/04/04 10:02:54;;;;;;;0.38;0.38;;;;;;;;;;5058370;28;20076;-67
2022/04/04 10:05:21;;;;;;;0.47;0.40;;;;;;;;;;5060262;28;20088;-67
2022/04/04 10:07:49;;;;;;;0.40;0.40;;;;;;;;;;5058771;28;20075;-67
2022/04/04 10:10:26;;;;;;;0.75;0.40;;;;;;;;;;5061875;28;20044;-67
2022/04/04 10:12:53;;;;;;;0.38;0.38;;;;;;;;;;5058771;28;20052;-67
2022/04/04 10:15:21;;;;;;;0.90;0.38;;;;;;;;;;5058119;28;20132;-67
2022/04/04 10:17:55;;;;;;;0.40;0.40;;;;;;;;;;5057979;28;20075;-68
2022/04/04 10:20:22;;;;;;;1.35;0.40;;;;;;;;;;5056594;28;20096;-67
2022/04/04 10:22:52;;;;;;;0.57;0.57;;;;;;;;;;5058697;28;20049;-67
2022/04/04 10:25:26;;;;;;;0.30;0.30;;;;;;;;;;5057367;28;20588;-67
2022/04/04 10:27:53;;;;;;;0.30;0.30;;;;;;;;;;5060983;28;20091;-67
2022/04/04 10:30:31;;;;;;;0.20;0.20;;;;;;;;;;5053522;28;20161;-67
2022/04/04 10:33:03;;;;;;;0.20;0.20;;;;;;;;;;5057343;28;20139;-68
2022/04/04 10:35:30;;;;;;;1.73;1.35;;;;;;;;;;5057838;28;20072;-67
2022/04/04 10:37:58;;;;;;;0.30;0.30;;;;;;;;;;5057167;28;20132;-67
2022/04/04 10:40:27;;;;;;;0.22;0.22;;;;;;;;;;5057008;28;20569;-67
2022/04/04 10:43:05;;;;;;;0.50;0.35;;;;;;;;;;5056711;28;20066;-68
2022/04/04 10:45:52;;;;;;;0.30;0.20;;;;;;;;;;5057996;28;20469;-67
2022/04/04 10:48:19;;;;;;;2.28;0.30;;;;;;;;;;5038453;28;20045;-67
2022/04/04 10:50:46;;;;;;;0.40;0.40;;;;;;;;;;5038214;28;20059;-67
2022/04/04 10:53:13;;;;;;;0.30;0.30;;;;;;;;;;5037292;28;20057;-67
2022/04/04 10:55:44;;;;;;;0.40;0.40;;;;;;;;;;5040941;28;20085;-67
2022/04/04 10:58:14;;;;;;;1.45;0.30;;;;;;;;;;5035938;28;20145;-67
2022/04/04 11:00:53;;;;;;;0.98;0.30;;;;;;;;;;5038843;28;20140;-68
2022/04/04 11:03:32;;;;;;;1.70;0.47;;;;;;;;;;5037027;28;20049;-67
2022/04/04 11:09:00;;;;;;;1.95;0.35;;;;;;;;;;5036582;28;20136;-67
2022/04/04 11:11:49;;;;;;;0.47;0.30;;;;;;;;;;5036579;28;20137;-67
2022/04/04 11:14:46;;;;;;;0.20;0.20;;;;;;;;;;5035495;28;20600;-67
2022/04/04 11:17:19;;;;;;;0.30;0.30;;;;;;;;;;5037258;28;20049;-67
2022/04/04 11:19:47;;;;;;;0.20;0.20;;;;;;;;;;5037785;28;20102;-67
2022/04/04 11:22:15;;;;;;;0.20;0.20;;;;;;;;;;5036146;28;20128;-67
2022/04/04 11:24:49;;;;;;;0.20;0.20;;;;;;;;;;5035925;28;20136;-67
2022/04/04 11:27:16;;;;;;;0.30;0.30;;;;;;;;;;5036150;28;20055;-67
2022/04/04 11:29:43;;;;;;;0.20;0.20;;;;;;;;;;5036523;28;20179;-68
2022/04/04 11:32:15;;;;;;;0.30;0.30;;;;;;;;;;5036815;28;20053;-67
2022/04/04 11:34:43;;;;;;;0.20;0.20;;;;;;;;;;5036008;28;20080;-67
2022/04/04 11:37:18;;;;;;;0.20;0.20;;;;;;;;;;5039069;28;20671;-67
2022/04/04 11:39:45;;;;;;;0.40;0.40;;;;;;;;;;5040079;28;20407;-68
2022/04/04 11:42:11;;;;;;;0.80;0.30;;;;;;;;;;5039913;28;20045;-68
2022/04/04 11:44:44;;;;;;;0.30;0.30;;;;;;;;;;5040575;28;20132;-68
2022/04/04 11:47:11;;;;;;;0.30;0.30;;;;;;;;;;5052137;28;20143;-68
2022/04/04 11:49:39;;;;;;;0.30;0.30;;;;;;;;;;5064515;28;20087;-68
2022/04/04 11:52:07;;;;;;;0.38;0.38;;;;;;;;;;5062544;28;20698;-68
2022/04/04 11:54:40;;;;;;;0.40;0.40;;;;;;;;;;5059557;28;20072;-68
2022/04/04 11:57:07;;;;;;;0.50;0.50;;;;;;;;;;5059099;28;20084;-67
2022/04/04 11:59:35;;;;;;;0.30;0.30;;;;;;;;;;5061892;28;20132;-68
2022/04/04 12:02:08;;;;;;;0.30;0.30;;;;;;;;;;5063859;28;20131;-67
2022/04/04 12:04:36;;;;;;;0.93;0.52;;;;;;;;;;5061542;28;20049;-68
2022/04/04 12:07:02;;;;;;;;;;;;;;;;;;5060923;28;20048;-67
2022/04/04 12:09:33;;;;;;;0.50;0.40;;;;;;;;;;5059373;28;20027;-68
2022/04/04 12:12:01;;;;;;;0.40;0.40;;;;;;;;;;5060542;28;20175;-67
2022/04/04 12:14:37;;;;;;;1.35;0.35;;;;;;;;;;5061125;28;20140;-67
2022/04/04 12:17:04;;;;;;;0.40;0.40;;;;;;;;;;5059353;28;20163;-68
2022/04/04 12:19:31;;;;;;;1.08;0.40;;;;;;;;;;5059139;28;20135;-67
2022/04/04 12:21:57;;;;;;;0.35;0.35;;;;;;;;;;5056799;28;20052;-68
2022/04/04 12:27:14;;;;;;;1.15;0.50;;;;;;;;;;5057859;28;20055;-67
2022/04/04 12:29:44;;;;;;;0.30;0.30;;;;;;;;;;5057939;28;20044;-67
2022/04/04 12:32:18;;;;;;;0.30;0.30;;;;;;;;;;5058817;28;20134;-67
2022/04/04 12:35:02;;;;;;;0.57;0.50;;;;;;;;;;5058075;28;20135;-67
2022/04/04 12:37:42;;;;;;;0.50;0.50;;;;;;;;;;5058573;28;20139;-67
2022/04/04 12:40:16;;;;;;;1.13;0.60;;;;;;;;;;5057723;28;20151;-67
2022/04/04 12:42:43;;;;;;;0.52;0.50;;;;;;;;;;5059965;28;20136;-67
2022/04/04 12:45:11;;;;;;;0.40;0.40;;;;;;;;;;5058547;28;20139;-67
2022/04/04 12:47:57;;;;;;;0.60;0.60;;;;;;;;;;5046984;28;20480;-67
2022/04/04 12:50:25;;;;;;;0.38;0.38;;;;;;;;;;5040687;28;20144;-67
2022/04/04 12:52:54;;;;;;;0.40;0.40;;;;;;;;;;5042427;28;20140;-67
2022/04/04 12:55:21;;;;;;;0.70;0.50;;;;;;;;;;5039712;28;20064;-68
2022/04/04 12:57:54;;;;;;;0.75;0.40;;;;;;;;;;5039822;28;20144;-67
2022/04/04 13:00:28;;;;;;;0.50;0.50;;;;;;;;;;5041341;28;20131;-68
2022/04/04 13:02:56;;;;;;;0.50;0.50;;;;;;;;;;5042415;28;20140;-69
2022/04/04 13:05:24;;;;;;;0.45;0.45;;;;;;;;;;5041721;28;20500;-68
2022/04/04 13:07:51;;;;;;;0.80;0.50;;;;;;;;;;5041740;28;20144;-68
2022/04/04 13:10:26;;;;;;;0.40;0.40;;;;;;;;;;5041747;28;20132;-67
2022/04/04 13:13:08;;;;;;;0.30;0.30;;;;;;;;;;5042124;28;20045;-67
2022/04/04 13:15:36;;;;;;;2.28;0.50;;;;;;;;;;5038336;28;20080;-68
2022/04/04 13:18:03;;;;;;;0.57;0.57;;;;;;;;;;5036216;28;20045;-68
2022/04/04 13:20:29;;;;;;;1.00;0.60;;;;;;;;;;5037865;28;20148;-67
2022/04/04 13:22:56;;;;;;;0.70;0.70;;;;;;;;;;5039540;28;20132;-67
2022/04/04 13:25:23;;;;;;;1.13;0.95;;;;;;;;;;5040993;28;20147;-68
2022/04/04 13:27:49;;;;;;;1.85;1.27;;;;;;;;;;5039728;28;20133;-68
2022/04/04 13:30:16;;;;;;;1.45;1.15;;;;;;;;;;5040437;28;20091;-68
2022/04/04 13:32:42;;;;;;;1.45;1.35;;;;;;;;;;5038692;28;20579;-68
2022/04/04 13:35:09;;;;;;;0.70;0.70;;;;;;;;;;5038413;28;20492;-68
2022/04/04 13:37:43;;;;;;;0.77;0.70;;;;;;;;;;5042620;28;20135;-67
2022/04/04 13:40:09;;;;;;;0.65;0.52;;;;;;;;;;5039778;28;20133;-68
2022/04/04 13:42:36;;;;;;;0.32;0.32;;;;;;;;;;5042636;28;20053;-68
2022/04/04 13:45:03;;;;;;;0.55;0.55;;;;;;;;;;5037666;28;20144;-68
2022/04/04 13:47:35;;;;;;;0.75;0.43;;;;;;;;;;5050193;28;20056;-67
2022/04/04 13:50:02;;;;;;;0.60;0.60;;;;;;;;;;5055697;28;20183;-67
2022/04/04 13:52:29;;;;;;;0.57;0.50;;;;;;;;;;5057172;28;20076;-68
2022/04/04 13:54:56;;;;;;;1.15;0.50;;;;;;;;;;5058650;28;20050;-68
2022/04/04 13:57:23;;;;;;;0.52;0.52;;;;;;;;;;5056865;28;20048;-68
2022/04/04 13:59:50;;;;;;;0.60;0.30;;;;;;;;;;5056201;28;20068;-68
2022/04/04 14:02:17;;;;;;;1.83;0.88;;;;;;;;;;5057547;28;20136;-68
2022/04/04 14:04:46;;;;;;;4.63;2.38;;;;;;;;;;5057739;28;20075;-68
2022/04/04 14:07:12;;;;;;;5.77;2.03;;;;;;;;;;5055830;28;20135;-68
2022/04/04 14:09:39;;;;;;;3.70;2.17;;;;;;;;;;5056965;28;20048;-69
2022/04/04 14:12:06;;;;;;;4.72;2.22;;;;;;;;;;5054723;28;20388;-69
2022/04/04 14:14:33;;;;;;;2.70;1.70;;;;;;;;;;5058338;28;20489;-68
2022/04/04 14:17:03;;;;;;;2.85;2.00;;;;;;;;;;5057462;28;20154;-69
2022/04/04 14:19:30;;;;;;;3.67;1.85;;;;;;;;;;5054857;28;20099;-69
2022/04/04 14:21:57;;;;;;;4.10;2.30;;;;;;;;;;5056095;28;20054;-69
2022/04/04 14:24:24;;;;;;;5.25;2.63;;;;;;;;;;5056046;28;20072;-69
2022/04/04 14:26:52;;;;;;;5.30;2.67;;;;;;;;;;5056368;28;20091;-69
2022/04/04 14:29:19;;;;;;;7.15;3.58;;;;;;;;;;5054452;28;20053;-69
2022/04/04 14:31:46;;;;;;;6.55;3.45;;;;;;;;;;5053680;28;20051;-69
2022/04/04 14:34:13;;;;;;;7.63;3.53;;;;;;;;;;5058639;28;20052;-70
2022/04/04 14:36:40;;;;;;;8.00;3.55;;;;;;;;;;5057589;28;20048;-69
2022/04/04 14:39:07;;;;;;;5.80;3.20;;;;;;;;;;5059976;28;20131;-69
2022/04/04 14:41:34;;;;;;;10.05;4.07;;;;;;;;;;5058697;28;20483;-69
2022/04/04 14:44:02;;;;;;;9.05;3.55;;;;;;;;;;5059679;28;20141;-69
2022/04/04 14:46:29;;;;;;;7.63;4.07;;;;;;;;;;5059752;28;20051;-69
2022/04/04 14:48:55;;;;;;;5.53;3.03;;;;;;;;;;5062040;28;20127;-69
2022/04/04 14:51:22;;;;;;;6.00;2.97;;;;;;;;;;5058804;28;20047;-70
2022/04/04 14:53:55;;;;;;;4.57;2.72;;;;;;;;;;5059305;28;20087;-70
2022/04/04 14:56:22;;;;;;;3.88;2.38;;;;;;;;;;5053654;28;20083;-70
2022/04/04 14:58:48;;;;;;;3.45;2.00;;;;;;;;;;5062143;28;20087;-70